createdAt,value
2023-01-30T00:01:57.932Z,1.10
2023-01-30T00:04:27.207Z,1.10
2023-01-30T00:06:55.102Z,1.00
2023-01-30T00:09:22.909Z,1.00
2023-01-30T00:11:50.806Z,1.10
2023-01-30T00:14:18.720Z,1.10
2023-01-30T00:16:46.620Z,1.00
2023-01-30T00:19:14.461Z,1.00
2023-01-30T00:21:43.628Z,1.10
2023-01-30T00:24:11.923Z,1.10
2023-01-30T00:26:39.963Z,1.10
2023-01-30T00:29:08.045Z,1.10
2023-01-30T00:31:35.905Z,1.10
2023-01-30T00:34:04.005Z,1.10
2023-01-30T00:36:31.850Z,1.10
2023-01-30T00:39:01.033Z,1.10
2023-01-30T00:41:49.137Z,1.20
2023-01-30T00:44:34.553Z,1.20
2023-01-30T00:47:09.150Z,1.20
2023-01-30T00:49:37.793Z,1.10
2023-01-30T00:52:06.148Z,1.30
2023-01-30T00:54:35.355Z,1.40
2023-01-30T00:57:03.310Z,1.50
2023-01-30T00:59:31.152Z,1.50
2023-01-30T01:01:58.953Z,1.60
2023-01-30T01:04:27.383Z,1.60
2023-01-30T01:06:55.243Z,1.60
2023-01-30T01:09:23.130Z,1.70
2023-01-30T01:11:52.266Z,1.60
2023-01-30T01:14:20.086Z,1.60
2023-01-30T01:16:48.126Z,1.70
2023-01-30T01:19:16.523Z,1.70
2023-01-30T01:21:44.339Z,1.70
2023-01-30T01:24:15.186Z,1.60
2023-01-30T01:26:43.927Z,1.60
2023-01-30T01:29:14.710Z,1.70
2023-01-30T01:31:42.613Z,1.60
2023-01-30T01:34:10.692Z,1.70
2023-01-30T01:36:54.899Z,1.70
2023-01-30T01:39:23.558Z,1.60
2023-01-30T01:41:50.644Z,1.50
2023-01-30T01:44:19.825Z,1.50
2023-01-30T01:46:52.244Z,1.50
2023-01-30T01:49:25.522Z,1.50
2023-01-30T01:51:57.931Z,1.50
2023-01-30T01:54:33.550Z,1.50
2023-01-30T01:57:04.827Z,1.50
2023-01-30T01:59:39.057Z,1.60
2023-01-30T02:02:10.102Z,1.60
2023-01-30T02:04:56.765Z,1.60
2023-01-30T02:07:24.897Z,1.60
2023-01-30T02:09:53.430Z,1.50
2023-01-30T02:12:21.293Z,1.40
2023-01-30T02:14:51.506Z,1.40
2023-01-30T02:17:19.426Z,1.30
2023-01-30T02:19:55.546Z,1.20
2023-01-30T02:23:15.205Z,1.20
2023-01-30T02:26:28.736Z,1.10
2023-01-30T02:29:24.244Z,1.00
2023-01-30T02:31:58.684Z,1.00
2023-01-30T02:34:42.701Z,1.00
2023-01-30T02:37:18.874Z,1.00
2023-01-30T02:39:55.380Z,1.10
2023-01-30T02:42:31.714Z,1.10
2023-01-30T02:45:07.834Z,1.10
2023-01-30T02:47:43.704Z,1.10
2023-01-30T02:50:17.011Z,1.20
2023-01-30T02:52:45.471Z,1.20
2023-01-30T02:55:21.384Z,1.20
2023-01-30T02:57:49.209Z,1.20
2023-01-30T03:00:21.981Z,1.20
2023-01-30T03:03:10.504Z,1.20
2023-01-30T03:05:59.515Z,1.20
2023-01-30T03:08:33.910Z,1.20
2023-01-30T03:11:08.200Z,1.20
2023-01-30T03:13:48.159Z,1.20
2023-01-30T03:16:20.505Z,1.20
2023-01-30T03:18:50.377Z,1.20
2023-01-30T03:21:18.590Z,1.20
2023-01-30T03:23:47.574Z,1.10
2023-01-30T03:26:20.249Z,1.10
2023-01-30T03:28:50.584Z,1.10
2023-01-30T03:31:18.682Z,1.20
2023-01-30T03:33:46.594Z,1.20
2023-01-30T03:36:16.280Z,1.20
2023-01-30T03:38:44.171Z,1.20
2023-01-30T03:41:12.105Z,1.20
2023-01-30T03:43:39.992Z,1.20
2023-01-30T03:46:07.929Z,1.10
2023-01-30T03:48:35.828Z,1.10
2023-01-30T03:51:03.728Z,1.20
2023-01-30T03:53:32.933Z,1.30
2023-01-30T03:56:00.757Z,1.30
2023-01-30T03:58:28.757Z,1.40
2023-01-30T04:00:57.773Z,1.50
2023-01-30T04:03:25.880Z,1.70
2023-01-30T04:05:53.714Z,1.60
2023-01-30T04:08:21.601Z,1.60
2023-01-30T04:10:50.828Z,1.60
2023-01-30T04:13:18.706Z,1.50
2023-01-30T04:15:46.513Z,1.50
2023-01-30T04:18:14.362Z,1.50
2023-01-30T04:20:42.228Z,1.50
2023-01-30T04:23:10.165Z,1.50
2023-01-30T04:25:37.998Z,1.50
2023-01-30T04:28:07.283Z,1.50
2023-01-30T04:30:35.110Z,1.50
2023-01-30T04:33:03.019Z,1.50
2023-01-30T04:35:30.913Z,1.50
2023-01-30T04:37:58.702Z,1.50
2023-01-30T04:40:26.535Z,1.50
2023-01-30T04:42:54.354Z,1.60
2023-01-30T04:45:23.538Z,1.60
2023-01-30T04:47:51.439Z,1.60
2023-01-30T04:50:19.404Z,1.50
2023-01-30T04:52:47.258Z,1.50
2023-01-30T04:55:15.174Z,1.60
2023-01-30T04:57:44.128Z,1.60
2023-01-30T05:00:12.951Z,1.60
2023-01-30T05:02:42.171Z,1.50
2023-01-30T05:05:11.016Z,1.50
2023-01-30T05:07:38.826Z,1.50
2023-01-30T05:10:07.875Z,1.50
2023-01-30T05:12:35.662Z,1.50
2023-01-30T05:15:03.588Z,1.50
2023-01-30T05:17:31.397Z,1.40
2023-01-30T05:20:00.632Z,1.50
2023-01-30T05:22:28.551Z,1.50
2023-01-30T05:24:56.352Z,1.50
2023-01-30T05:27:24.236Z,1.50
2023-01-30T05:29:52.074Z,1.50
2023-01-30T05:32:20.940Z,1.60
2023-01-30T05:34:50.264Z,1.50
2023-01-30T05:37:19.475Z,1.60
2023-01-30T05:39:47.327Z,1.50
2023-01-30T05:42:16.140Z,1.50
2023-01-30T05:44:44.042Z,1.50
2023-01-30T05:47:11.877Z,1.40
2023-01-30T05:49:40.015Z,1.40
2023-01-30T05:52:07.845Z,1.30
2023-01-30T05:54:37.311Z,1.30
2023-01-30T05:57:05.414Z,1.30
2023-01-30T05:59:33.588Z,1.30
2023-01-30T06:02:01.396Z,1.30
2023-01-30T06:04:29.256Z,1.20
2023-01-30T06:06:57.200Z,1.20
2023-01-30T06:09:25.105Z,1.20
2023-01-30T06:11:55.593Z,1.20
2023-01-30T06:14:23.515Z,1.20
2023-01-30T06:16:51.750Z,1.30
2023-01-30T06:19:19.688Z,1.30
2023-01-30T06:21:47.526Z,1.30
2023-01-30T06:24:15.525Z,1.30
2023-01-30T06:26:43.484Z,1.30
2023-01-30T06:29:12.802Z,1.30
2023-01-30T06:31:40.745Z,1.20
2023-01-30T06:34:08.659Z,1.20
2023-01-30T06:36:36.500Z,1.20
2023-01-30T06:39:04.472Z,1.20
2023-01-30T06:41:32.290Z,1.30
2023-01-30T06:44:00.114Z,1.40
2023-01-30T06:46:29.868Z,1.40
2023-01-30T06:48:57.727Z,1.50
2023-01-30T06:51:27.376Z,1.60
2023-01-30T06:53:55.315Z,1.70
2023-01-30T06:56:23.156Z,1.90
2023-01-30T06:58:51.000Z,1.90
2023-01-30T07:01:19.378Z,1.90
2023-01-30T07:03:48.621Z,1.90
2023-01-30T07:06:16.518Z,1.80
2023-01-30T07:08:44.880Z,1.80
2023-01-30T07:11:12.833Z,1.90
2023-01-30T07:13:40.665Z,1.80
2023-01-30T07:16:09.848Z,1.80
2023-01-30T07:18:37.875Z,1.80
2023-01-30T07:21:07.428Z,1.80
2023-01-30T07:23:36.093Z,1.80
2023-01-30T07:26:04.923Z,1.80
2023-01-30T07:28:32.881Z,1.80
2023-01-30T07:31:01.328Z,1.80
2023-01-30T07:33:32.374Z,1.70
2023-01-30T07:36:00.211Z,1.70
2023-01-30T07:38:29.392Z,1.80
2023-01-30T07:40:58.675Z,1.80
2023-01-30T07:43:26.532Z,1.90
2023-01-30T07:45:54.372Z,2.00
2023-01-30T07:48:22.360Z,2.30
2023-01-30T07:50:50.163Z,2.50
2023-01-30T07:53:19.432Z,2.70
2023-01-30T07:55:48.885Z,2.80
2023-01-30T07:58:17.385Z,3.00
2023-01-30T08:00:46.703Z,3.00
2023-01-30T08:03:16.628Z,3.10
2023-01-30T08:05:46.718Z,3.10
2023-01-30T08:08:15.137Z,3.10
2023-01-30T08:10:43.517Z,3.20
2023-01-30T08:13:18.333Z,3.20
2023-01-30T08:15:46.152Z,3.20
2023-01-30T08:18:13.990Z,3.30
2023-01-30T08:20:44.686Z,3.30
2023-01-30T08:23:12.721Z,3.30
2023-01-30T08:25:40.594Z,3.30
2023-01-30T08:28:08.446Z,3.30
2023-01-30T08:30:42.605Z,3.30
2023-01-30T08:33:10.442Z,3.40
2023-01-30T08:35:38.313Z,3.40
2023-01-30T08:38:07.168Z,3.40
2023-01-30T08:40:35.130Z,3.50
2023-01-30T08:43:03.215Z,3.50
2023-01-30T08:45:31.239Z,3.50
2023-01-30T08:48:01.490Z,3.60
2023-01-30T08:50:29.545Z,3.60
2023-01-30T08:52:57.439Z,3.70
2023-01-30T08:55:25.274Z,3.70
2023-01-30T08:57:53.076Z,3.70
2023-01-30T09:00:21.931Z,3.70
2023-01-30T09:02:49.944Z,3.70
2023-01-30T09:05:19.388Z,3.70
2023-01-30T09:07:47.258Z,3.70
2023-01-30T09:10:15.359Z,3.70
2023-01-30T09:12:43.213Z,3.70
2023-01-30T09:15:12.112Z,3.80
2023-01-30T09:17:40.048Z,3.80
2023-01-30T09:20:09.291Z,3.80
2023-01-30T09:22:38.733Z,3.90
2023-01-30T09:25:08.036Z,3.90
2023-01-30T09:27:36.945Z,3.90
2023-01-30T09:30:05.688Z,3.90
2023-01-30T09:32:34.498Z,4.00
2023-01-30T09:35:02.349Z,4.00
2023-01-30T09:37:30.178Z,4.00
2023-01-30T09:39:59.457Z,4.10
2023-01-30T09:42:49.993Z,4.20
2023-01-30T09:45:46.866Z,4.30
2023-01-30T09:48:24.054Z,4.50
2023-01-30T09:51:28.261Z,4.60
2023-01-30T09:54:03.963Z,4.50
2023-01-30T09:56:33.198Z,4.70
2023-01-30T09:59:03.686Z,4.70
2023-01-30T10:01:38.084Z,4.80
2023-01-30T10:04:16.720Z,4.90
2023-01-30T10:06:53.221Z,4.90
2023-01-30T10:09:33.985Z,4.90
2023-01-30T10:12:19.770Z,4.90
2023-01-30T10:15:01.445Z,4.90
2023-01-30T10:17:38.139Z,4.80
2023-01-30T10:20:31.554Z,4.90
2023-01-30T10:23:12.168Z,4.80
2023-01-30T10:25:45.104Z,4.80
2023-01-30T10:28:21.302Z,4.90
2023-01-30T10:30:52.319Z,4.90
2023-01-30T10:33:24.997Z,4.90
2023-01-30T10:36:00.805Z,4.90
2023-01-30T10:38:34.419Z,4.80
2023-01-30T10:41:09.021Z,4.90
2023-01-30T10:43:43.747Z,4.90
2023-01-30T10:46:23.498Z,4.80
2023-01-30T10:48:57.276Z,4.80
2023-01-30T10:51:35.487Z,4.80
2023-01-30T10:54:13.273Z,4.80
2023-01-30T10:56:45.060Z,4.70
2023-01-30T10:59:24.306Z,4.70
2023-01-30T11:02:01.027Z,4.70
2023-01-30T11:04:34.185Z,4.70
2023-01-30T11:07:03.145Z,4.70
2023-01-30T11:09:42.767Z,4.70
2023-01-30T11:12:11.048Z,4.70
2023-01-30T11:14:53.621Z,4.80
2023-01-30T11:17:23.431Z,4.80
2023-01-30T11:19:57.438Z,4.80
2023-01-30T11:22:27.192Z,4.80
2023-01-30T11:25:07.669Z,4.80
2023-01-30T11:27:36.938Z,4.80
2023-01-30T11:30:13.541Z,4.90
2023-01-30T11:32:44.555Z,4.90
2023-01-30T11:35:25.923Z,4.90
2023-01-30T11:37:54.587Z,4.80
2023-01-30T11:40:29.502Z,4.80
2023-01-30T11:43:03.867Z,4.90
2023-01-30T11:45:37.402Z,4.90
2023-01-30T11:48:19.957Z,4.80
2023-01-30T11:51:01.352Z,4.80
2023-01-30T11:53:35.228Z,4.80
2023-01-30T11:56:09.419Z,4.90
2023-01-30T11:58:41.021Z,4.90
2023-01-30T12:01:11.863Z,4.80
2023-01-30T12:03:48.304Z,4.90
2023-01-30T12:06:23.437Z,4.90
2023-01-30T12:08:54.849Z,4.90
2023-01-30T12:11:29.029Z,4.90
2023-01-30T12:14:05.237Z,4.80
2023-01-30T12:16:54.215Z,4.80
2023-01-30T12:19:33.784Z,4.80
2023-01-30T12:22:10.490Z,4.90
2023-01-30T12:24:44.466Z,4.90
2023-01-30T12:27:20.258Z,4.90
2023-01-30T12:30:00.421Z,4.90
2023-01-30T12:32:32.533Z,4.90
2023-01-30T12:35:00.405Z,4.90
2023-01-30T12:37:47.286Z,4.90
2023-01-30T12:40:31.313Z,4.90
2023-01-30T12:43:23.805Z,5.00
2023-01-30T12:46:02.232Z,5.00
2023-01-30T12:49:11.985Z,5.10
2023-01-30T12:52:00.917Z,5.20
2023-01-30T12:54:44.735Z,5.30
2023-01-30T12:57:21.975Z,5.40
2023-01-30T13:00:03.057Z,5.50
2023-01-30T13:02:51.195Z,5.60
2023-01-30T13:05:35.666Z,5.70
2023-01-30T13:08:26.924Z,5.70
2023-01-30T13:11:04.963Z,5.70
2023-01-30T13:13:43.763Z,5.70
2023-01-30T13:16:19.316Z,5.70
2023-01-30T13:18:53.751Z,5.70
2023-01-30T13:21:30.599Z,5.70
2023-01-30T13:24:15.430Z,5.70
2023-01-30T13:26:45.328Z,5.80
2023-01-30T13:29:18.925Z,5.80
2023-01-30T13:31:53.101Z,5.80
2023-01-30T13:34:29.257Z,5.80
2023-01-30T13:37:03.880Z,5.80
2023-01-30T13:39:42.266Z,5.70
2023-01-30T13:42:19.106Z,5.70
2023-01-30T13:44:49.287Z,5.60
2023-01-30T13:47:39.587Z,5.60
2023-01-30T13:50:40.251Z,5.60
2023-01-30T13:53:15.768Z,5.60
2023-01-30T13:55:50.595Z,5.60
2023-01-30T13:58:37.165Z,5.70
2023-01-30T14:01:05.198Z,5.70
2023-01-30T14:03:34.237Z,5.80
2023-01-30T14:06:33.821Z,5.80
2023-01-30T14:09:17.344Z,5.80
2023-01-30T14:11:50.538Z,5.90
2023-01-30T14:14:26.285Z,6.00
2023-01-30T14:16:57.141Z,6.10
2023-01-30T14:19:46.930Z,6.10
2023-01-30T14:22:22.158Z,6.10
2023-01-30T14:25:35.438Z,6.00
2023-01-30T14:28:51.677Z,6.00
2023-01-30T14:31:55.877Z,6.00
2023-01-30T14:34:40.888Z,6.00
2023-01-30T14:37:30.857Z,6.00
2023-01-30T14:39:59.791Z,6.00
2023-01-30T14:42:30.256Z,6.00
2023-01-30T14:44:59.813Z,5.90
2023-01-30T14:47:33.952Z,5.90
2023-01-30T14:50:21.931Z,5.80
2023-01-30T14:52:51.231Z,5.90
2023-01-30T14:55:23.708Z,5.90
2023-01-30T14:57:57.066Z,5.80
2023-01-30T15:00:29.281Z,5.80
2023-01-30T15:03:00.211Z,5.80
2023-01-30T15:05:32.605Z,5.80
2023-01-30T15:08:07.481Z,5.80
2023-01-30T15:11:01.969Z,5.70
2023-01-30T15:13:43.299Z,5.70
2023-01-30T15:16:47.412Z,5.60
2023-01-30T15:19:41.287Z,5.60
2023-01-30T15:22:19.922Z,5.60
2023-01-30T15:25:27.890Z,5.60
2023-01-30T15:28:07.140Z,5.70
2023-01-30T15:30:57.089Z,5.70
2023-01-30T15:33:31.364Z,5.70
2023-01-30T15:36:00.355Z,5.70
2023-01-30T15:38:31.289Z,5.60
2023-01-30T15:41:02.075Z,5.70
2023-01-30T15:44:03.545Z,5.60
2023-01-30T15:46:44.661Z,5.60
2023-01-30T15:49:35.199Z,5.70
2023-01-30T15:52:05.291Z,5.70
2023-01-30T15:54:33.459Z,5.70
2023-01-30T15:57:01.876Z,5.70
2023-01-30T15:59:35.463Z,5.70
2023-01-30T16:02:07.874Z,5.70
2023-01-30T16:04:35.790Z,5.60
2023-01-30T16:07:15.709Z,5.60
2023-01-30T16:09:49.591Z,5.60
2023-01-30T16:12:27.446Z,5.60
2023-01-30T16:15:05.682Z,5.60
2023-01-30T16:17:41.522Z,5.70
2023-01-30T16:20:15.311Z,5.80
2023-01-30T16:22:47.953Z,5.80
2023-01-30T16:25:22.222Z,5.70
2023-01-30T16:27:52.291Z,5.60
2023-01-30T16:30:26.335Z,5.50
2023-01-30T16:33:00.831Z,5.40
2023-01-30T16:35:34.166Z,5.40
2023-01-30T16:38:05.022Z,5.30
2023-01-30T16:40:45.084Z,5.30
2023-01-30T16:43:21.539Z,5.30
2023-01-30T16:46:25.119Z,5.30
2023-01-30T16:48:54.388Z,5.20
2023-01-30T16:51:25.434Z,5.10
2023-01-30T16:53:59.079Z,5.00
2023-01-30T16:56:27.910Z,5.00
2023-01-30T16:58:58.688Z,4.90
2023-01-30T17:01:38.041Z,4.80
2023-01-30T17:04:09.849Z,4.80
2023-01-30T17:06:40.370Z,4.80
2023-01-30T17:09:30.382Z,4.80
2023-01-30T17:11:58.415Z,4.70
2023-01-30T17:14:27.158Z,4.70
2023-01-30T17:17:02.191Z,4.70
2023-01-30T17:19:31.908Z,4.70
2023-01-30T17:22:02.328Z,4.60
2023-01-30T17:24:31.108Z,4.60
2023-01-30T17:27:02.151Z,4.60
2023-01-30T17:29:47.055Z,4.60
2023-01-30T17:32:17.001Z,4.60
2023-01-30T17:34:46.380Z,4.60
2023-01-30T17:37:16.606Z,4.60
2023-01-30T17:39:44.585Z,4.60
2023-01-30T17:42:13.446Z,4.50
2023-01-30T17:44:41.814Z,4.50
2023-01-30T17:47:11.920Z,4.50
2023-01-30T17:49:40.423Z,4.40
2023-01-30T17:52:09.687Z,4.40
2023-01-30T17:54:37.556Z,4.50
2023-01-30T17:57:09.553Z,4.50
2023-01-30T17:59:37.481Z,4.60
2023-01-30T18:02:05.581Z,4.60
2023-01-30T18:04:33.643Z,4.70
2023-01-30T18:07:04.684Z,4.80
2023-01-30T18:09:33.917Z,4.80
2023-01-30T18:12:01.835Z,4.90
2023-01-30T18:14:29.662Z,4.90
2023-01-30T18:17:00.422Z,4.90
2023-01-30T18:19:31.381Z,5.00
2023-01-30T18:21:59.974Z,5.00
2023-01-30T18:24:27.932Z,5.00
2023-01-30T18:26:57.151Z,5.00
2023-01-30T18:29:25.003Z,5.10
2023-01-30T18:31:52.977Z,5.00
2023-01-30T18:34:20.847Z,5.00
2023-01-30T18:36:48.695Z,5.00
2023-01-30T18:39:16.659Z,5.00
2023-01-30T18:41:44.577Z,5.10
2023-01-30T18:44:13.969Z,5.20
2023-01-30T18:46:41.926Z,5.20
2023-01-30T18:49:09.942Z,5.20
2023-01-30T18:51:37.820Z,5.30
2023-01-30T18:54:05.755Z,5.20
2023-01-30T18:56:34.810Z,5.30
2023-01-30T18:59:05.185Z,5.30
2023-01-30T19:01:37.984Z,5.30
2023-01-30T19:04:08.920Z,5.40
2023-01-30T19:06:37.874Z,5.40
2023-01-30T19:09:06.821Z,5.30
2023-01-30T19:11:52.163Z,5.30
2023-01-30T19:14:20.121Z,5.30
2023-01-30T19:16:51.161Z,5.30
2023-01-30T19:19:19.403Z,5.20
2023-01-30T19:21:47.691Z,5.20
2023-01-30T19:24:17.361Z,5.20
2023-01-30T19:26:45.351Z,5.20
2023-01-30T19:29:13.226Z,5.20
2023-01-30T19:31:41.524Z,5.20
2023-01-30T19:34:12.731Z,5.20
2023-01-30T19:36:41.454Z,5.20
2023-01-30T19:39:11.361Z,5.30
2023-01-30T19:41:39.536Z,5.30
2023-01-30T19:44:09.055Z,5.30
2023-01-30T19:46:37.353Z,5.40
2023-01-30T19:49:05.952Z,5.40
2023-01-30T19:51:36.991Z,5.40
2023-01-30T19:54:06.754Z,5.40
2023-01-30T19:56:34.914Z,5.50
2023-01-30T19:59:03.445Z,5.50
2023-01-30T20:01:35.273Z,5.50
2023-01-30T20:04:03.761Z,5.60
2023-01-30T20:06:33.222Z,5.60
2023-01-30T20:09:04.891Z,5.60
2023-01-30T20:11:34.685Z,5.60
2023-01-30T20:14:05.233Z,5.60
2023-01-30T20:16:34.620Z,5.60
2023-01-30T20:19:04.751Z,5.60
2023-01-30T20:21:33.198Z,5.60
2023-01-30T20:24:02.691Z,5.60
2023-01-30T20:26:32.385Z,5.60
2023-01-30T20:29:00.295Z,5.60
2023-01-30T20:31:29.854Z,5.50
2023-01-30T20:33:58.418Z,5.50
2023-01-30T20:36:27.995Z,5.40
2023-01-30T20:39:01.702Z,5.40
2023-01-30T20:41:32.410Z,5.40
2023-01-30T20:44:00.626Z,5.40
2023-01-30T20:46:29.963Z,5.40
2023-01-30T20:49:01.167Z,5.40
2023-01-30T20:51:30.684Z,5.40
2023-01-30T20:53:59.933Z,5.40
2023-01-30T20:56:33.839Z,5.40
2023-01-30T20:59:02.635Z,5.40
2023-01-30T21:01:30.556Z,5.40
2023-01-30T21:03:58.472Z,5.40
2023-01-30T21:06:42.725Z,5.40
2023-01-30T21:09:15.274Z,5.40
2023-01-30T21:11:44.816Z,5.40
2023-01-30T21:14:12.844Z,5.50
2023-01-30T21:16:41.175Z,5.50
2023-01-30T21:19:14.076Z,5.40
2023-01-30T21:21:44.151Z,5.40
2023-01-30T21:24:14.554Z,5.40
2023-01-30T21:26:46.244Z,5.40
2023-01-30T21:29:15.077Z,5.30
2023-01-30T21:31:44.558Z,5.30
2023-01-30T21:34:13.049Z,5.20
2023-01-30T21:36:41.641Z,5.20
2023-01-30T21:39:31.358Z,5.20
2023-01-30T21:42:19.263Z,5.20
2023-01-30T21:44:47.913Z,5.10
2023-01-30T21:47:15.824Z,5.10
2023-01-30T21:49:45.551Z,5.10
2023-01-30T21:52:13.384Z,5.00
2023-01-30T21:54:41.221Z,5.10
2023-01-30T21:57:10.771Z,5.10
2023-01-30T21:59:38.977Z,5.10
2023-01-30T22:02:07.172Z,5.10
2023-01-30T22:04:36.555Z,5.00
2023-01-30T22:07:06.739Z,5.00
2023-01-30T22:09:34.830Z,5.00
2023-01-30T22:12:02.704Z,5.10
2023-01-30T22:14:33.194Z,5.10
2023-01-30T22:17:01.205Z,5.00
2023-01-30T22:19:35.012Z,5.00
2023-01-30T22:22:03.112Z,5.00
2023-01-30T22:24:31.233Z,5.00
2023-01-30T22:26:59.169Z,5.00
2023-01-30T22:29:28.947Z,5.00
2023-01-30T22:31:58.221Z,5.00
2023-01-30T22:34:26.401Z,5.00
2023-01-30T22:36:54.420Z,5.00
2023-01-30T22:39:22.361Z,5.10
2023-01-30T22:41:50.220Z,5.10
2023-01-30T22:44:18.066Z,5.10
2023-01-30T22:46:46.040Z,5.10
2023-01-30T22:49:15.313Z,5.10
2023-01-30T22:51:44.069Z,5.20
2023-01-30T22:54:15.730Z,5.20
2023-01-30T22:56:45.465Z,5.20
2023-01-30T22:59:13.394Z,5.10
2023-01-30T23:01:42.989Z,5.10
2023-01-30T23:04:13.699Z,5.10
2023-01-30T23:06:43.578Z,5.10
2023-01-30T23:09:14.555Z,5.10
2023-01-30T23:11:44.541Z,5.10
2023-01-30T23:14:13.789Z,5.10
2023-01-30T23:16:43.735Z,5.10
2023-01-30T23:19:13.060Z,5.10
2023-01-30T23:21:45.388Z,5.10
2023-01-30T23:24:15.591Z,5.10
2023-01-30T23:26:45.711Z,5.00
2023-01-30T23:29:15.715Z,5.00
2023-01-30T23:31:45.008Z,5.00
2023-01-30T23:34:15.554Z,5.00
2023-01-30T23:36:45.155Z,5.00
2023-01-30T23:39:14.094Z,4.90
2023-01-30T23:41:42.920Z,4.90
2023-01-30T23:44:11.557Z,4.90
2023-01-30T23:46:41.175Z,4.90
2023-01-30T23:49:10.868Z,4.90
2023-01-30T23:51:40.298Z,5.00
2023-01-30T23:54:10.099Z,5.00
2023-01-30T23:56:40.467Z,5.10
2023-01-30T23:59:08.939Z,5.10
